Terminal Aerodrome Forecast
Issued by NWS

Home | Current Version | Previous Version | Text Only | Print | Product List | Glossary On
Versions: 1 2 3 4 5 6 7 8 9 10 11 12 13 14 15 16 17 18 19 20 21
000
FTUS45 KBOU 301728
TAFBJC
TAF
KBJC 301728Z 3018/3118 VRB05KT P6SM FEW150
     FM302000 31012KT P6SM SCT080 BKN140
      TEMPO 3021/3023 VRB20G35KT -TSRA BKN070CB
     FM310200 23012KT P6SM FEW080 SCT140
     FM310600 35010KT P6SM FEW140 SCT220
     FM310900 34007KT P6SM SCT006 OVC010
     FM311500 05007KT P6SM SCT014 BKN025=

USA.gov is the U.S. government's official web portal to all federal, state and local government web resources and services.